Lepe, Spain
Current Conditions -  °F | °C
As of 8:43 AM on Saturday 25 Oct 2014 (Local Time) from LPFR Reporting Station
Broken Clouds Broken Clouds  
Wind Chill: 68°   Ceiling: 1500
Heat Index: 68°   Visibility: 6mi
Dew Point: 63°   Wind: 10mph
Humidity: 83%   Direction: 80°E
Pressure: 29.97"   Gusts: NA
Location:  37.25°N, 7.2°W
Report Text: LPFR 250643Z 08009KT 9999 BKN015 20/17 Q1015
Loading
Personal Weather Stations






























Interactive Weather Map
Tropical Storm Tracking
New forecast layout! Learn more

10-Day Weather Forecast

Advertisements
Track Severe Weather on mobile